Frilaens III — LK8780 — position and weather

sailwx.info

Track history (hours):
 
Tides and Currents Weather Stations Pressure Air Temp Water Temp Dewpoint Dewpoint Depression Visibility Wind Speed Wind Dir Waves Ship Positions

Frilaens III

Last reported at 2017-Jun-22 08:21 UTC. Time now 2017-Jun-28 08:47 UTC.
Position N 48°21' W 004°35'.

Length 12 m.

Type: Sailing vessel. MMSI: 257640790.

Date/timePositionNaut miles runAvg speedWind from/ knotsBaromVisibWave heightAir tempDewpointWater temp
2017-Jun-22 08:21N 48°21' W 004°35'2 4.7
2017-Jun-22 08:00N 48°21' W 004°33'2 3.2
2017-Jun-22 07:29N 48°22' W 004°30'1 0.1
2017-Jun-21 11:46N 48°23' W 004°29'0 0.0
2017-Jun-21 11:30N 48°23' W 004°29'3 5.2
2017-Jun-21 10:59N 48°21' W 004°32'1 1.1
2017-Jun-21 10:30N 48°21' W 004°33'2 4.7
2017-Jun-21 10:00N 48°22' W 004°30'2 0.0
2017-Jun-19 09:28N 48°22' W 004°27'3 7.2
2017-Jun-19 09:00N 48°21' W 004°32'5 0.3
2017-Jun-18 16:12N 48°17' W 004°36'  
2017-Jun-13 12:53N 46°28' W 001°48'1 3.1
2017-Jun-13 12:30N 46°29' W 001°48'1 1.3
2017-Jun-13 12:00N 46°30' W 001°47'0 0.0
2017-Jun-12 18:08N 46°30' W 001°47'0 0.0
2017-Jun-12 17:59N 46°30' W 001°47'0 0.0
2017-Jun-12 17:29N 46°30' W 001°47'0 0.5
2017-Jun-12 16:58N 46°30' W 001°48'0 0.0
2017-Jun-12 16:28N 46°30' W 001°48'2 3.6
2017-Jun-12 16:00N 46°29' W 001°47'  
Track history (hours):
 
Tides and Currents Weather Stations Pressure Air Temp Water Temp Dewpoint Dewpoint Depression Visibility Wind Speed Wind Dir Waves Ship Positions

Frilaens III

Last reported at 2017-Jun-22 08:21 UTC. Time now 2017-Jun-28 08:47 UTC.
Position N 48°21' W 004°35'.

Length 12 m.

Type: Sailing vessel. MMSI: 257640790.

Date/timePositionNaut miles runAvg speedWind from/ knotsBaromVisibWave heightAir tempDewpointWater temp
2017-Jun-22 08:21N 48°21' W 004°35'2 4.7
2017-Jun-22 08:00N 48°21' W 004°33'2 3.2
2017-Jun-22 07:29N 48°22' W 004°30'1 0.1
2017-Jun-21 11:46N 48°23' W 004°29'0 0.0
2017-Jun-21 11:30N 48°23' W 004°29'3 5.2
2017-Jun-21 10:59N 48°21' W 004°32'1 1.1
2017-Jun-21 10:30N 48°21' W 004°33'2 4.7
2017-Jun-21 10:00N 48°22' W 004°30'2 0.0
2017-Jun-19 09:28N 48°22' W 004°27'3 7.2
2017-Jun-19 09:00N 48°21' W 004°32'5 0.3
2017-Jun-18 16:12N 48°17' W 004°36'  
2017-Jun-13 12:53N 46°28' W 001°48'1 3.1
2017-Jun-13 12:30N 46°29' W 001°48'1 1.3
2017-Jun-13 12:00N 46°30' W 001°47'0 0.0
2017-Jun-12 18:08N 46°30' W 001°47'0 0.0
2017-Jun-12 17:59N 46°30' W 001°47'0 0.0
2017-Jun-12 17:29N 46°30' W 001°47'0 0.5
2017-Jun-12 16:58N 46°30' W 001°48'0 0.0
2017-Jun-12 16:28N 46°30' W 001°48'2 3.6
2017-Jun-12 16:00N 46°29' W 001°47'  

Dump ship's entire track history